Time;durP1;ratioP1;P1;durP2;ratioP2;P2;SDS_P1;SDS_P2;PMS_P1;PMS_P2;Temp;Humidity;BMP_temperature;BMP_pressure;BME280_temperature;BME280_humidity;BME280_pressure;Samples;Min_cycle;Max_cycle;Signal;HPM_P1;HPM_P2
2022/09/03 00:02:13;;;;;;;;;;;18.20;54.30;;;;;;5005053;28;19934;-68
2022/09/03 00:04:45;;;;;;;;;;;18.30;53.90;;;;;;4999438;28;19926;-68
2022/09/03 00:07:16;;;;;;;;;;;18.40;53.80;;;;;;4999338;28;19925;-68
2022/09/03 00:09:46;;;;;;;;;;;18.30;54.70;;;;;;5006285;28;21006;-68
2022/09/03 00:12:16;;;;;;;;;;;18.20;56.80;;;;;;4999919;28;19968;-67
2022/09/03 00:14:48;;;;;;;;;;;18.00;58.20;;;;;;5001278;28;19941;-68
2022/09/03 00:17:16;;;;;;;;;;;18.00;58.90;;;;;;4999119;28;19925;-67
2022/09/03 00:19:45;;;;;;;;;;;18.00;59.60;;;;;;5004323;28;20345;-67
2022/09/03 00:22:15;;;;;;;;;;;18.00;59.60;;;;;;5002374;28;19981;-67
2022/09/03 00:24:42;;;;;;;;;;;18.00;60.00;;;;;;4998134;28;20453;-68
2022/09/03 00:27:13;;;;;;;;;;;18.00;60.90;;;;;;4997998;28;20372;-68
2022/09/03 00:29:41;;;;;;;;;;;18.00;60.70;;;;;;5003061;28;20413;-68
2022/09/03 00:32:13;;;;;;;;;;;18.00;61.20;;;;;;5001783;28;20072;-68
2022/09/03 00:34:41;;;;;;;;;;;18.10;61.00;;;;;;5001769;28;20392;-68
2022/09/03 00:37:09;;;;;;;;;;;18.10;60.60;;;;;;4998584;28;20348;-68
2022/09/03 00:39:36;;;;;;;;;;;18.10;60.80;;;;;;5001048;28;19932;-68
2022/09/03 00:42:10;;;;;;;;;;;18.10;61.50;;;;;;4998460;28;19929;-68
2022/09/03 00:44:53;;;;;;;;;;;18.10;61.60;;;;;;4999530;28;20016;-68
2022/09/03 00:47:24;;;;;;;;;;;18.20;61.90;;;;;;4998606;28;19929;-67
2022/09/03 00:49:57;;;;;;;;;;;18.20;60.80;;;;;;4998807;28;19941;-67
2022/09/03 00:52:34;;;;;;;;;;;18.30;60.40;;;;;;4999437;28;20028;-67
2022/09/03 00:55:02;;;;;;;;;;;18.30;60.10;;;;;;4998187;28;19948;-67
2022/09/03 00:57:35;;;;;;;;;;;18.40;60.10;;;;;;4998902;28;19986;-67
2022/09/03 01:00:06;;;;;;;;;;;18.40;59.70;;;;;;5000840;28;19936;-67
2022/09/03 01:02:40;;;;;;;;;;;18.40;59.80;;;;;;5000443;28;20004;-68
2022/09/03 01:05:09;;;;;;;;;;;18.30;61.30;;;;;;4999466;28;19945;-68
2022/09/03 01:07:40;;;;;;;;;;;18.30;62.60;;;;;;4997026;28;19937;-68
2022/09/03 01:10:13;;;;;;;;;;;18.20;63.80;;;;;;5003984;28;19933;-68
2022/09/03 01:12:48;;;;;;;;;;;18.10;65.10;;;;;;5000068;28;20029;-68
2022/09/03 01:15:18;;;;;;;;;;;18.00;65.90;;;;;;5001704;28;20420;-68
2022/09/03 01:17:54;;;;;;;;;;;18.00;66.70;;;;;;4999225;28;20410;-68
2022/09/03 01:20:27;;;;;;;;;;;18.00;67.30;;;;;;5002773;28;19929;-68
2022/09/03 01:23:15;;;;;;;;;;;18.00;67.80;;;;;;4998411;28;20379;-68
2022/09/03 01:25:49;;;;;;;;;;;18.00;68.70;;;;;;5001216;28;20232;-68
2022/09/03 01:28:22;;;;;;;;;;;18.00;68.90;;;;;;5003254;28;19926;-67
2022/09/03 01:30:54;;;;;;;;;;;18.00;69.50;;;;;;5005836;28;19935;-68
2022/09/03 01:33:25;;;;;;;;;;;18.00;70.20;;;;;;4999710;28;19929;-68
2022/09/03 01:35:54;;;;;;;;;;;18.10;70.10;;;;;;5008902;28;19929;-68
2022/09/03 01:38:25;;;;;;;;;;;18.10;69.30;;;;;;5002203;28;20377;-68
2022/09/03 01:40:56;;;;;;;;;;;18.10;69.20;;;;;;5000392;28;20386;-69
2022/09/03 01:43:35;;;;;;;;;;;18.10;69.00;;;;;;4999796;28;19929;-68
2022/09/03 01:46:03;;;;;;;;;;;18.20;69.30;;;;;;4999661;28;20441;-69
2022/09/03 01:48:40;;;;;;;;;;;18.20;68.80;;;;;;5001197;28;20012;-68
2022/09/03 01:51:11;;;;;;;;;;;18.20;69.10;;;;;;5001522;28;19926;-68
2022/09/03 01:53:45;;;;;;;;;;;18.20;69.90;;;;;;5001973;28;19926;-68
2022/09/03 01:56:19;;;;;;;;;;;18.20;69.80;;;;;;5004445;28;19929;-68
2022/09/03 01:58:55;;;;;;;;;;;18.20;69.60;;;;;;5001382;28;19932;-68
2022/09/03 02:01:26;;;;;;;;;;;18.20;69.90;;;;;;5002688;28;19929;-68
2022/09/03 02:03:58;;;;;;;;;;;18.10;71.00;;;;;;5002011;28;20451;-69
2022/09/03 02:06:25;;;;;;;;;;;18.10;71.50;;;;;;5000365;28;20411;-69
2022/09/03 02:08:52;;;;;;;;;;;18.10;72.00;;;;;;5000291;28;19936;-68
2022/09/03 02:11:19;;;;;;;;;;;18.00;72.90;;;;;;5003279;28;20012;-68
2022/09/03 02:13:48;;;;;;;;;;;17.90;74.20;;;;;;5002886;28;20012;-68
2022/09/03 02:16:17;;;;;;;;;;;17.80;75.30;;;;;;4996010;28;20296;-68
2022/09/03 02:18:45;;;;;;;;;;;17.80;77.40;;;;;;4999939;28;19969;-68
2022/09/03 02:21:14;;;;;;;;;;;17.70;77.80;;;;;;5005509;28;19936;-68
2022/09/03 02:23:41;;;;;;;;;;;17.60;78.90;;;;;;5003651;28;19957;-68
2022/09/03 02:26:10;;;;;;;;;;;17.60;79.20;;;;;;5001871;28;20025;-68
2022/09/03 02:28:37;;;;;;;;;;;17.60;79.30;;;;;;5002439;28;19980;-68
2022/09/03 02:31:03;;;;;;;;;;;17.60;79.10;;;;;;5000713;28;19979;-68
2022/09/03 02:33:32;;;;;;;;;;;17.70;79.10;;;;;;5000589;28;20414;-68
2022/09/03 02:35:59;;;;;;;;;;;17.70;79.10;;;;;;5005251;28;19925;-68
2022/09/03 02:38:26;;;;;;;;;;;17.70;79.00;;;;;;5002404;28;20384;-68
2022/09/03 02:40:53;;;;;;;;;;;17.80;78.10;;;;;;5000648;28;19929;-69
2022/09/03 02:43:23;;;;;;;;;;;17.90;78.00;;;;;;5000260;28;19971;-68
2022/09/03 02:45:52;;;;;;;;;;;17.90;77.70;;;;;;5006761;28;19925;-69
2022/09/03 02:48:20;;;;;;;;;;;17.90;77.70;;;;;;5001689;28;19926;-68
2022/09/03 02:50:48;;;;;;;;;;;17.90;77.70;;;;;;5001809;28;19948;-68
2022/09/03 02:53:15;;;;;;;;;;;17.90;77.70;;;;;;5002380;28;19932;-68
2022/09/03 02:55:41;;;;;;;;;;;17.90;78.10;;;;;;4999591;28;20618;-68
2022/09/03 02:58:08;;;;;;;;;;;18.00;78.00;;;;;;5001245;28;19981;-67
2022/09/03 03:00:36;;;;;;;;;;;17.90;78.10;;;;;;5001730;28;20288;-68
2022/09/03 03:03:02;;;;;;;;;;;17.90;78.50;;;;;;5004624;28;19936;-67
2022/09/03 03:05:34;;;;;;;;;;;17.90;78.80;;;;;;4999976;28;20024;-67
2022/09/03 03:08:02;;;;;;;;;;;18.00;79.40;;;;;;5010824;28;20028;-67
2022/09/03 03:10:29;;;;;;;;;;;17.90;79.80;;;;;;5000811;28;20286;-67
2022/09/03 03:12:56;;;;;;;;;;;18.00;80.40;;;;;;5003520;28;19926;-67
2022/09/03 03:15:23;;;;;;;;;;;18.00;80.20;;;;;;4998949;28;19973;-68
2022/09/03 03:17:50;;;;;;;;;;;18.00;80.70;;;;;;5005120;28;19934;-67
2022/09/03 03:20:17;;;;;;;;;;;18.00;81.00;;;;;;5007389;28;19926;-68
2022/09/03 03:22:43;;;;;;;;;;;18.00;81.10;;;;;;4999490;28;20352;-68
2022/09/03 03:25:11;;;;;;;;;;;17.90;81.20;;;;;;5001521;28;19930;-67
2022/09/03 03:27:40;;;;;;;;;;;18.00;82.20;;;;;;5000455;28;20028;-68
2022/09/03 03:30:09;;;;;;;;;;;17.90;83.30;;;;;;5048529;28;20488;-67
2022/09/03 03:32:35;;;;;;;;;;;17.80;84.20;;;;;;5004235;28;19973;-68
2022/09/03 03:35:02;;;;;;;;;;;17.80;85.20;;;;;;4999712;28;20378;-68
2022/09/03 03:37:29;;;;;;;;;;;17.70;86.10;;;;;;5001106;28;19931;-68
2022/09/03 03:39:56;;;;;;;;;;;17.70;87.40;;;;;;4995946;28;19956;-67
2022/09/03 03:42:24;;;;;;;;;;;17.70;88.20;;;;;;4996888;28;19933;-67
2022/09/03 03:44:51;;;;;;;;;;;17.70;88.90;;;;;;4997654;28;20459;-67
2022/09/03 03:47:17;;;;;;;;;;;17.60;90.00;;;;;;5004851;28;20033;-67
2022/09/03 03:49:44;;;;;;;;;;;17.60;90.00;;;;;;5012074;28;19948;-68
2022/09/03 03:52:11;;;;;;;;;;;17.60;90.30;;;;;;4997355;28;20020;-68
2022/09/03 03:54:37;;;;;;;;;;;17.60;90.40;;;;;;4999920;28;19925;-68
2022/09/03 03:57:04;;;;;;;;;;;17.60;90.70;;;;;;5000197;28;19932;-68
2022/09/03 03:59:32;;;;;;;;;;;17.70;91.50;;;;;;5037688;28;19959;-68
2022/09/03 04:01:59;;;;;;;;;;;17.60;91.60;;;;;;5007715;28;21524;-68
2022/09/03 04:04:25;;;;;;;;;;;17.70;91.80;;;;;;4998911;28;19987;-68
2022/09/03 04:06:52;;;;;;;;;;;17.50;92.90;;;;;;4999257;28;22397;-68
2022/09/03 04:09:19;;;;;;;;;;;17.30;93.40;;;;;;4998737;28;19972;-68
2022/09/03 04:11:45;;;;;;;;;;;17.20;94.40;;;;;;4998682;28;19926;-67
2022/09/03 04:14:12;;;;;;;;;;;17.20;95.00;;;;;;4997752;28;19969;-67
2022/09/03 04:16:40;;;;;;;;;;;17.30;94.90;;;;;;4997526;28;20032;-67
2022/09/03 04:19:07;;;;;;;;;;;17.00;94.70;;;;;;4999092;28;19926;-68
2022/09/03 04:21:34;;;;;;;;;;;17.20;95.40;;;;;;5002011;28;20024;-67
2022/09/03 04:24:00;;;;;;;;;;;17.10;95.50;;;;;;4999098;28;19933;-67
2022/09/03 04:26:30;;;;;;;;;;;17.10;95.70;;;;;;5004375;28;19925;-67
2022/09/03 04:28:56;;;;;;;;;;;17.10;95.80;;;;;;5000821;28;19926;-67
2022/09/03 04:31:23;;;;;;;;;;;17.20;95.40;;;;;;5002768;28;20017;-67
2022/09/03 04:33:50;;;;;;;;;;;17.20;94.80;;;;;;5000143;28;19933;-67
2022/09/03 04:36:18;;;;;;;;;;;17.20;94.80;;;;;;5005358;28;19961;-68
2022/09/03 04:38:46;;;;;;;;;;;17.20;94.80;;;;;;5002021;28;19925;-67
2022/09/03 04:41:13;;;;;;;;;;;17.30;94.60;;;;;;5007705;28;19932;-67
2022/09/03 04:43:42;;;;;;;;;;;17.20;94.70;;;;;;4997219;28;19930;-67
2022/09/03 04:46:09;;;;;;;;;;;17.20;95.20;;;;;;5003971;28;20428;-67
2022/09/03 04:48:36;;;;;;;;;;;17.20;96.00;;;;;;4998750;28;20376;-68
2022/09/03 04:51:05;;;;;;;;;;;17.10;96.80;;;;;;4998599;28;20289;-67
2022/09/03 04:53:32;;;;;;;;;;;17.10;98.10;;;;;;5007241;28;19930;-67
2022/09/03 04:55:59;;;;;;;;;;;17.10;98.90;;;;;;5003302;28;19934;-67
2022/09/03 04:58:25;;;;;;;;;;;17.10;99.40;;;;;;5002426;28;20376;-67
2022/09/03 05:00:52;;;;;;;;;;;17.20;99.90;;;;;;5003442;28;20020;-67
2022/09/03 05:03:20;;;;;;;;;;;17.20;99.90;;;;;;5001228;28;19933;-67
2022/09/03 05:05:52;;;;;;;;;;;17.10;99.90;;;;;;5001394;28;20540;-67
2022/09/03 05:08:20;;;;;;;;;;;17.20;99.90;;;;;;5000048;28;20315;-67
2022/09/03 05:10:47;;;;;;;;;;;17.20;99.90;;;;;;5008241;28;20296;-66
2022/09/03 05:13:13;;;;;;;;;;;17.20;99.90;;;;;;5001797;28;19976;-69
2022/09/03 05:15:44;;;;;;;;;;;17.20;99.90;;;;;;5001496;28;19947;-67
2022/09/03 05:18:11;;;;;;;;;;;17.30;99.90;;;;;;5001380;28;19930;-67
2022/09/03 05:20:37;;;;;;;;;;;17.10;99.90;;;;;;5002956;28;20020;-70
2022/09/03 05:23:04;;;;;;;;;;;16.90;99.90;;;;;;5002080;28;20676;-68
2022/09/03 05:25:32;;;;;;;;;;;16.90;99.90;;;;;;5000832;28;20456;-66
2022/09/03 05:27:59;;;;;;;;;;;16.90;99.90;;;;;;4998630;28;20020;-66
2022/09/03 05:30:26;;;;;;;;;;;16.90;99.90;;;;;;4998295;28;19929;-68
2022/09/03 05:32:52;;;;;;;;;;;17.10;99.90;;;;;;5002091;28;19930;-68
2022/09/03 05:35:19;;;;;;;;;;;17.20;99.90;;;;;;5002584;28;20017;-64
2022/09/03 05:37:46;;;;;;;;;;;17.10;99.90;;;;;;5001389;28;19962;-64
2022/09/03 05:40:13;;;;;;;;;;;17.00;99.90;;;;;;5001824;28;19930;-63
2022/09/03 05:42:41;;;;;;;;;;;16.70;99.90;;;;;;5000914;28;20379;-64
2022/09/03 05:45:09;;;;;;;;;;;16.80;99.90;;;;;;5002481;28;19933;-64
2022/09/03 05:47:38;;;;;;;;;;;16.90;99.90;;;;;;5002707;28;19933;-68
2022/09/03 05:50:06;;;;;;;;;;;16.80;99.90;;;;;;5001440;28;20040;-68
2022/09/03 05:52:33;;;;;;;;;;;16.90;99.90;;;;;;5006043;28;20362;-68
2022/09/03 05:54:59;;;;;;;;;;;16.90;99.90;;;;;;5005699;28;19926;-68
2022/09/03 05:57:26;;;;;;;;;;;17.00;99.90;;;;;;5001229;28;19933;-68
2022/09/03 05:59:54;;;;;;;;;;;16.90;99.90;;;;;;5002598;28;19925;-68
2022/09/03 06:02:21;;;;;;;;;;;16.80;99.90;;;;;;5000647;28;20399;-68
2022/09/03 06:04:48;;;;;;;;;;;16.80;99.90;;;;;;4999404;28;19926;-68
2022/09/03 06:07:15;;;;;;;;;;;16.90;99.90;;;;;;5002851;28;20012;-68
2022/09/03 06:09:42;;;;;;;;;;;17.10;99.90;;;;;;5004563;28;19934;-66
2022/09/03 06:12:09;;;;;;;;;;;17.20;99.90;;;;;;5005799;28;20247;-67
2022/09/03 06:14:35;;;;;;;;;;;17.10;99.90;;;;;;5004439;28;19925;-66
2022/09/03 06:17:03;;;;;;;;;;;17.00;99.90;;;;;;5001220;28;20375;-66
2022/09/03 06:19:30;;;;;;;;;;;16.80;99.90;;;;;;4996004;28;19961;-66
2022/09/03 06:21:57;;;;;;;;;;;16.70;99.90;;;;;;5018051;28;19930;-66
2022/09/03 06:24:26;;;;;;;;;;;16.80;99.90;;;;;;5004767;28;19940;-66
2022/09/03 06:26:52;;;;;;;;;;;16.80;99.90;;;;;;5025641;28;20215;-66
2022/09/03 06:29:19;;;;;;;;;;;16.80;99.90;;;;;;5008615;28;20322;-66
2022/09/03 06:31:47;;;;;;;;;;;16.90;99.90;;;;;;5005364;28;19952;-66
2022/09/03 06:34:17;;;;;;;;;;;16.90;99.90;;;;;;4999378;28;19929;-66
2022/09/03 06:36:44;;;;;;;;;;;17.00;99.90;;;;;;5009319;28;20445;-69
2022/09/03 06:39:10;;;;;;;;;;;17.20;99.90;;;;;;5006252;28;19934;-66
2022/09/03 06:41:38;;;;;;;;;;;17.30;99.90;;;;;;5003455;28;20065;-66
2022/09/03 06:44:10;;;;;;;;;;;17.50;99.90;;;;;;5000916;28;19932;-67
2022/09/03 06:46:38;;;;;;;;;;;17.80;99.90;;;;;;5006252;28;19987;-67
2022/09/03 06:49:05;;;;;;;;;;;18.10;99.90;;;;;;5001132;28;19933;-69
2022/09/03 06:51:34;;;;;;;;;;;18.30;99.90;;;;;;5002636;28;19933;-68
2022/09/03 06:54:02;;;;;;;;;;;18.50;99.90;;;;;;5004694;28;19978;-66
2022/09/03 06:56:28;;;;;;;;;;;18.70;99.90;;;;;;4995924;28;20024;-66
2022/09/03 06:58:56;;;;;;;;;;;18.80;99.90;;;;;;5049579;28;20010;-66
2022/09/03 07:01:24;;;;;;;;;;;18.90;99.90;;;;;;5082102;28;20010;-66
2022/09/03 07:03:54;;;;;;;;;;;18.90;99.90;;;;;;5023516;28;20399;-66
2022/09/03 07:06:22;;;;;;;;;;;19.10;99.90;;;;;;5007291;28;19947;-66
2022/09/03 07:08:50;;;;;;;;;;;19.00;99.90;;;;;;5003377;28;19926;-66
2022/09/03 07:11:18;;;;;;;;;;;19.00;99.90;;;;;;5007411;28;19931;-66
2022/09/03 07:13:45;;;;;;;;;;;18.90;99.90;;;;;;5010176;28;20016;-66
2022/09/03 07:16:13;;;;;;;;;;;18.70;99.90;;;;;;5006285;28;19945;-66
2022/09/03 07:18:42;;;;;;;;;;;18.60;99.90;;;;;;5010973;28;19968;-67
2022/09/03 07:21:10;;;;;;;;;;;18.60;99.90;;;;;;5006095;28;20413;-65
2022/09/03 07:23:38;;;;;;;;;;;18.40;99.90;;;;;;5004363;28;19925;-65
2022/09/03 07:26:08;;;;;;;;;;;18.40;99.90;;;;;;5002543;28;19926;-65
2022/09/03 07:28:35;;;;;;;;;;;18.40;99.90;;;;;;5002693;28;19990;-68
2022/09/03 07:31:03;;;;;;;;;;;18.50;99.90;;;;;;5006642;28;19930;-65
2022/09/03 07:33:31;;;;;;;;;;;18.60;99.90;;;;;;5001675;28;19925;-67
2022/09/03 07:36:02;;;;;;;;;;;18.70;99.90;;;;;;5003682;28;19933;-66
2022/09/03 07:38:28;;;;;;;;;;;18.70;99.90;;;;;;5005855;28;20031;-66
2022/09/03 07:40:57;;;;;;;;;;;18.80;99.90;;;;;;5006858;28;20016;-65
2022/09/03 07:43:26;;;;;;;;;;;18.80;99.90;;;;;;5011143;28;19926;-66
2022/09/03 07:45:54;;;;;;;;;;;18.90;99.90;;;;;;5033255;28;19977;-66
2022/09/03 07:48:21;;;;;;;;;;;19.10;99.90;;;;;;5042887;28;19923;-66
2022/09/03 07:50:47;;;;;;;;;;;19.30;99.90;;;;;;5018789;28;20386;-67
2022/09/03 07:53:15;;;;;;;;;;;19.40;99.90;;;;;;5025385;28;20024;-66
2022/09/03 07:55:42;;;;;;;;;;;19.50;99.90;;;;;;5020696;28;19923;-67
2022/09/03 07:58:09;;;;;;;;;;;19.70;99.90;;;;;;5005151;28;19926;-67
2022/09/03 08:00:37;;;;;;;;;;;19.60;99.90;;;;;;5001671;28;19932;-67
2022/09/03 08:03:07;;;;;;;;;;;19.70;99.90;;;;;;5007215;28;19926;-66
2022/09/03 08:05:34;;;;;;;;;;;20.00;99.90;;;;;;5002443;28;20388;-66
2022/09/03 08:08:01;;;;;;;;;;;20.10;99.90;;;;;;5007005;28;19925;-67
2022/09/03 08:10:29;;;;;;;;;;;20.20;99.90;;;;;;5002808;28;20375;-69
2022/09/03 08:12:56;;;;;;;;;;;20.10;99.90;;;;;;5002860;28;19933;-70
2022/09/03 08:15:23;;;;;;;;;;;20.10;99.90;;;;;;4997764;28;19929;-70
2022/09/03 08:17:51;;;;;;;;;;;20.10;99.90;;;;;;4997726;28;20013;-70
2022/09/03 08:20:18;;;;;;;;;;;20.30;99.90;;;;;;4998347;28;20003;-71
2022/09/03 08:22:45;;;;;;;;;;;20.40;99.90;;;;;;5005846;28;19926;-70
2022/09/03 08:25:12;;;;;;;;;;;20.60;99.90;;;;;;5022958;28;20004;-70
2022/09/03 08:27:39;;;;;;;;;;;20.80;99.90;;;;;;4997107;28;19937;-71
2022/09/03 08:30:10;;;;;;;;;;;20.90;99.90;;;;;;5003070;28;20396;-70
2022/09/03 08:32:37;;;;;;;;;;;21.20;99.90;;;;;;4998974;28;20051;-70
2022/09/03 08:35:06;;;;;;;;;;;21.40;99.90;;;;;;5004426;28;20696;-71
2022/09/03 08:37:33;;;;;;;;;;;21.60;99.90;;;;;;5004163;28;19929;-68
2022/09/03 08:40:00;;;;;;;;;;;21.70;99.90;;;;;;4992847;28;19926;-69
2022/09/03 08:42:37;;;;;;;;;;;21.80;99.90;;;;;;4996466;28;19933;-69
2022/09/03 08:45:06;;;;;;;;;;;22.50;99.90;;;;;;5007635;28;20392;-70
2022/09/03 08:47:35;;;;;;;;;;;22.80;99.90;;;;;;4991996;28;19933;-68
2022/09/03 08:50:03;;;;;;;;;;;24.10;99.90;;;;;;4998093;28;19925;-68
2022/09/03 08:52:32;;;;;;;;;;;24.80;98.60;;;;;;5031116;28;20028;-69
2022/09/03 08:55:16;;;;;;;;;;;24.80;97.20;;;;;;5003251;28;20020;-69
2022/09/03 08:57:45;;;;;;;;;;;24.70;97.10;;;;;;5001047;28;20017;-69
2022/09/03 09:00:13;;;;;;;;;;;24.80;96.30;;;;;;4998043;28;19926;-70
2022/09/03 09:02:46;;;;;;;;;;;24.60;96.90;;;;;;5000424;28;19937;-68
2022/09/03 09:05:16;;;;;;;;;;;24.80;96.90;;;;;;4994000;28;20129;-68
2022/09/03 09:07:46;;;;;;;;;;;25.00;96.70;;;;;;4995275;28;19971;-68
2022/09/03 09:10:15;;;;;;;;;;;24.20;98.70;;;;;;4994653;28;20025;-69
2022/09/03 09:12:46;;;;;;;;;;;24.30;99.70;;;;;;4998049;28;19934;-68
2022/09/03 09:15:18;;;;;;;;;;;24.10;99.90;;;;;;4994993;28;19926;-68
2022/09/03 09:17:57;;;;;;;;;;;24.30;99.90;;;;;;4999038;28;19926;-68
2022/09/03 09:20:28;;;;;;;;;;;24.30;99.80;;;;;;4999834;28;19931;-69
2022/09/03 09:22:59;;;;;;;;;;;24.40;99.70;;;;;;5002993;28;20481;-69
2022/09/03 09:25:26;;;;;;;;;;;24.30;99.60;;;;;;4998998;28;20362;-68
2022/09/03 09:27:56;;;;;;;;;;;24.40;99.90;;;;;;4994291;28;19925;-69
2022/09/03 09:30:23;;;;;;;;;;;24.50;98.90;;;;;;4994177;28;19949;-68
2022/09/03 09:32:50;;;;;;;;;;;24.50;99.20;;;;;;4990161;28;20328;-68
2022/09/03 09:35:17;;;;;;;;;;;24.70;98.90;;;;;;5000184;28;20000;-68
2022/09/03 09:37:49;;;;;;;;;;;25.20;98.20;;;;;;5006131;28;20072;-68
2022/09/03 09:40:25;;;;;;;;;;;25.70;96.70;;;;;;5024083;28;19926;-69
2022/09/03 09:42:57;;;;;;;;;;;26.30;94.80;;;;;;5004857;28;19925;-69
2022/09/03 09:45:24;;;;;;;;;;;26.50;92.90;;;;;;5003244;28;19925;-69
2022/09/03 09:47:54;;;;;;;;;;;26.40;93.00;;;;;;5011579;28;19999;-68
2022/09/03 09:50:21;;;;;;;;;;;26.60;92.00;;;;;;5007236;28;20401;-69
2022/09/03 09:52:48;;;;;;;;;;;26.80;91.70;;;;;;5002976;28;19929;-69
2022/09/03 09:55:16;;;;;;;;;;;27.30;91.20;;;;;;5008469;28;20404;-68
2022/09/03 09:57:44;;;;;;;;;;;28.20;86.80;;;;;;5014276;28;20196;-69
2022/09/03 10:00:12;;;;;;;;;;;27.80;84.80;;;;;;5007073;28;20352;-67
2022/09/03 10:02:41;;;;;;;;;;;27.30;88.30;;;;;;5002685;28;19926;-69
2022/09/03 10:05:20;;;;;;;;;;;27.00;92.10;;;;;;4997779;28;20303;-68
2022/09/03 10:07:54;;;;;;;;;;;26.80;93.30;;;;;;4995046;28;19932;-68
2022/09/03 10:10:21;;;;;;;;;;;26.20;94.60;;;;;;5002333;28;19932;-69
2022/09/03 10:12:57;;;;;;;;;;;25.90;96.70;;;;;;5002029;28;20495;-68
2022/09/03 10:15:27;;;;;;;;;;;25.80;96.60;;;;;;5008498;28;20118;-68
2022/09/03 10:18:00;;;;;;;;;;;25.70;97.30;;;;;;5005850;28;19930;-69
2022/09/03 10:20:30;;;;;;;;;;;25.80;97.90;;;;;;5009322;28;19925;-69
2022/09/03 10:22:59;;;;;;;;;;;25.80;97.70;;;;;;4998498;28;20081;-67
2022/09/03 10:25:31;;;;;;;;;;;25.80;98.00;;;;;;5002533;28;20603;-68
2022/09/03 10:28:00;;;;;;;;;;;26.10;97.20;;;;;;5000434;28;20079;-68
2022/09/03 10:30:28;;;;;;;;;;;26.30;96.70;;;;;;5005994;28;19925;-69
2022/09/03 10:33:01;;;;;;;;;;;26.50;95.10;;;;;;5005504;28;19965;-69
2022/09/03 10:35:30;;;;;;;;;;;26.90;94.90;;;;;;5000681;28;20021;-69
2022/09/03 10:38:02;;;;;;;;;;;27.10;93.70;;;;;;5006485;28;19925;-69
2022/09/03 10:40:31;;;;;;;;;;;27.00;93.30;;;;;;5006826;28;20296;-69
2022/09/03 10:43:07;;;;;;;;;;;26.90;93.50;;;;;;5007126;28;19930;-69
2022/09/03 10:45:38;;;;;;;;;;;26.90;93.30;;;;;;5006942;28;20012;-69
2022/09/03 10:48:22;;;;;;;;;;;26.90;93.50;;;;;;5003575;28;20408;-69
2022/09/03 10:50:53;;;;;;;;;;;27.00;93.50;;;;;;5009333;28;19934;-69
2022/09/03 10:53:26;;;;;;;;;;;26.90;93.60;;;;;;4999564;28;19926;-68
2022/09/03 10:55:57;;;;;;;;;;;26.80;93.70;;;;;;4997937;28;19932;-69
2022/09/03 10:58:41;;;;;;;;;;;26.70;94.40;;;;;;5001847;28;19925;-69
2022/09/03 11:01:12;;;;;;;;;;;26.80;94.20;;;;;;5006408;28;19936;-69
2022/09/03 11:03:43;;;;;;;;;;;27.10;94.00;;;;;;5002137;28;20036;-69
2022/09/03 11:06:12;;;;;;;;;;;27.20;93.10;;;;;;5011025;28;19933;-68
2022/09/03 11:08:42;;;;;;;;;;;27.00;93.50;;;;;;4999769;28;19944;-69
2022/09/03 11:11:14;;;;;;;;;;;26.70;93.70;;;;;;5010707;28;20411;-68
2022/09/03 11:13:44;;;;;;;;;;;26.40;95.20;;;;;;5007382;28;19991;-68
2022/09/03 11:16:15;;;;;;;;;;;26.20;95.20;;;;;;5006107;28;19926;-68
2022/09/03 11:18:44;;;;;;;;;;;26.20;94.70;;;;;;5003434;28;19979;-68
2022/09/03 11:21:13;;;;;;;;;;;26.30;94.40;;;;;;5008896;28;19930;-68
2022/09/03 11:23:42;;;;;;;;;;;26.40;94.40;;;;;;5002913;28;20020;-68
2022/09/03 11:26:11;;;;;;;;;;;26.20;94.30;;;;;;5007194;28;20333;-68
2022/09/03 11:28:44;;;;;;;;;;;26.20;94.30;;;;;;5003996;28;19970;-68
2022/09/03 11:31:16;;;;;;;;;;;26.10;94.60;;;;;;5002645;28;19930;-68
2022/09/03 11:33:46;;;;;;;;;;;26.40;94.70;;;;;;4998859;28;20008;-68
2022/09/03 11:36:12;;;;;;;;;;;26.40;94.60;;;;;;5007277;28;19948;-66
2022/09/03 11:38:39;;;;;;;;;;;26.40;95.00;;;;;;5005934;28;19932;-67
2022/09/03 11:41:13;;;;;;;;;;;26.70;94.70;;;;;;5014202;28;20015;-67
2022/09/03 11:43:40;;;;;;;;;;;26.60;94.80;;;;;;4999020;28;20134;-67
2022/09/03 11:46:11;;;;;;;;;;;26.30;95.80;;;;;;5003993;28;20388;-67
2022/09/03 11:48:42;;;;;;;;;;;26.00;96.80;;;;;;5002260;28;19965;-67
2022/09/03 11:51:20;;;;;;;;;;;26.20;96.80;;;;;;5003163;28;19925;-67
2022/09/03 11:53:53;;;;;;;;;;;26.50;95.90;;;;;;5003405;28;20012;-68
2022/09/03 11:56:21;;;;;;;;;;;26.70;95.50;;;;;;5009126;28;20411;-68
2022/09/03 11:58:59;;;;;;;;;;;26.70;95.60;;;;;;5015501;28;19925;-68
2022/09/03 12:01:27;;;;;;;;;;;27.00;95.30;;;;;;5001627;28;19925;-68
2022/09/03 12:03:58;;;;;;;;;;;27.10;95.00;;;;;;5005425;28;20059;-67
2022/09/03 12:06:33;;;;;;;;;;;27.20;94.10;;;;;;5009754;28;20554;-68
2022/09/03 12:09:06;;;;;;;;;;;27.30;93.50;;;;;;5002716;28;19968;-68
2022/09/03 12:11:41;;;;;;;;;;;27.50;91.70;;;;;;5009266;28;19930;-68
2022/09/03 12:14:12;;;;;;;;;;;27.90;91.50;;;;;;5006935;28;20160;-67
2022/09/03 12:17:00;;;;;;;;;;;27.70;91.10;;;;;;5018443;28;19933;-69
2022/09/03 12:19:32;;;;;;;;;;;27.90;91.40;;;;;;5009038;28;20028;-67
2022/09/03 12:22:03;;;;;;;;;;;28.00;91.00;;;;;;5003666;28;19926;-68
2022/09/03 12:24:32;;;;;;;;;;;28.20;90.30;;;;;;5006419;28;19972;-68
2022/09/03 12:26:59;;;;;;;;;;;28.30;89.40;;;;;;5005419;28;19933;-68
2022/09/03 12:29:27;;;;;;;;;;;28.10;90.30;;;;;;5000786;28;19925;-67
2022/09/03 12:31:55;;;;;;;;;;;27.60;90.50;;;;;;5003079;28;19926;-67
2022/09/03 12:34:22;;;;;;;;;;;27.60;90.60;;;;;;5007889;28;20399;-69
2022/09/03 12:36:51;;;;;;;;;;;28.00;90.50;;;;;;4999383;28;19941;-68
2022/09/03 12:39:19;;;;;;;;;;;28.00;89.00;;;;;;5006317;28;20020;-69
2022/09/03 12:41:54;;;;;;;;;;;28.00;88.30;;;;;;5000629;28;19961;-68
2022/09/03 12:44:25;;;;;;;;;;;27.80;89.20;;;;;;5008403;28;20479;-68
2022/09/03 12:47:00;;;;;;;;;;;28.00;87.60;;;;;;4997996;28;19934;-68
2022/09/03 12:49:26;;;;;;;;;;;28.20;87.40;;;;;;5004479;28;20037;-69
2022/09/03 12:52:01;;;;;;;;;;;28.00;89.20;;;;;;4996261;28;19965;-68
2022/09/03 12:54:28;;;;;;;;;;;28.20;91.70;;;;;;4997362;28;20013;-68
2022/09/03 12:56:56;;;;;;;;;;;28.10;90.10;;;;;;5006659;28;19976;-68
2022/09/03 12:59:24;;;;;;;;;;;28.10;90.50;;;;;;5000283;28;19925;-68
2022/09/03 13:01:52;;;;;;;;;;;27.90;90.70;;;;;;5001269;28;19932;-68
2022/09/03 13:04:20;;;;;;;;;;;27.80;90.10;;;;;;4999697;28;19973;-68
2022/09/03 13:06:49;;;;;;;;;;;27.60;90.60;;;;;;5006393;28;19936;-68
2022/09/03 13:09:19;;;;;;;;;;;27.70;90.40;;;;;;5006241;28;20006;-69
2022/09/03 13:11:46;;;;;;;;;;;27.90;90.50;;;;;;5005651;28;19932;-68
2022/09/03 13:14:16;;;;;;;;;;;27.90;90.00;;;;;;5005942;28;19965;-68
2022/09/03 13:17:00;;;;;;;;;;;27.90;89.20;;;;;;5009967;28;20427;-68
2022/09/03 13:19:30;;;;;;;;;;;28.10;88.50;;;;;;5003740;28;19932;-68
2022/09/03 13:22:01;;;;;;;;;;;28.20;88.90;;;;;;5007979;28;19933;-68
2022/09/03 13:24:39;;;;;;;;;;;28.50;86.30;;;;;;4998785;28;20032;-68
2022/09/03 13:27:10;;;;;;;;;;;28.60;85.00;;;;;;5011108;28;20016;-68
2022/09/03 13:29:39;;;;;;;;;;;28.10;86.90;;;;;;5009709;28;20277;-67
2022/09/03 13:32:11;;;;;;;;;;;27.90;87.30;;;;;;5007546;28;20384;-68
2022/09/03 13:34:40;;;;;;;;;;;28.00;86.70;;;;;;5007330;28;20375;-68
2022/09/03 13:37:11;;;;;;;;;;;28.10;86.00;;;;;;5007428;28;19932;-68
2022/09/03 13:39:42;;;;;;;;;;;27.80;85.20;;;;;;5006197;28;19926;-67
2022/09/03 13:42:10;;;;;;;;;;;27.40;85.90;;;;;;5010779;28;20325;-68
2022/09/03 13:44:43;;;;;;;;;;;27.20;86.90;;;;;;5008561;28;20057;-67
2022/09/03 13:47:13;;;;;;;;;;;27.10;86.50;;;;;;5014135;28;19947;-68
2022/09/03 13:52:31;;;;;;;;;;;27.60;92.70;;;;;;5021451;28;19955;-67
2022/09/03 13:55:01;;;;;;;;;;;27.50;92.00;;;;;;5014911;28;19925;-68
2022/09/03 13:57:32;;;;;;;;;;;27.70;92.20;;;;;;4997766;28;20020;-68
2022/09/03 14:00:01;;;;;;;;;;;28.30;91.20;;;;;;5001865;28;20281;-67
2022/09/03 14:02:31;;;;;;;;;;;28.70;90.20;;;;;;5005050;28;20495;-68
2022/09/03 14:05:03;;;;;;;;;;;28.90;88.40;;;;;;4996046;28;20024;-67
2022/09/03 14:07:40;;;;;;;;;;;28.70;87.00;;;;;;5013378;28;20551;-68
2022/09/03 14:10:16;;;;;;;;;;;28.40;88.00;;;;;;5000117;28;20349;-69
2022/09/03 14:12:45;;;;;;;;;;;28.50;87.40;;;;;;5011059;28;20292;-68
2022/09/03 14:15:17;;;;;;;;;;;28.30;87.30;;;;;;5000035;28;20057;-69
2022/09/03 14:17:46;;;;;;;;;;;28.20;87.40;;;;;;5004697;28;19933;-68
2022/09/03 14:20:17;;;;;;;;;;;28.10;87.20;;;;;;5003363;28;19969;-68
2022/09/03 14:22:48;;;;;;;;;;;27.80;88.60;;;;;;5011008;28;19944;-69
2022/09/03 14:25:17;;;;;;;;;;;27.50;89.80;;;;;;5033030;28;20165;-68
2022/09/03 14:27:44;;;;;;;;;;;27.40;90.10;;;;;;4998093;28;19926;-68
2022/09/03 14:30:19;;;;;;;;;;;27.40;88.80;;;;;;5026601;28;20035;-68
2022/09/03 14:32:51;;;;;;;;;;;27.40;89.10;;;;;;5005256;28;20035;-68